KCCA

Clinton Municipal Airport

Clinton, Arkansas, USA
METAR KCCA 221535Z AUTO 00000KT 8SM CLR 27/21 A3006 RMK AO2
Observed Flight Rules
May-22 @ 15:35 UTC (14 minutes ago) Visual Flight Rules
Visibility Clouds
8 miles
  • Clear skies
Temperatures Readings
Current 27°C / 81°F
Dewpoint 21°C / 70°F
Humidity 70%
Altimeter 30.06" Hg
Pressure 1018 hPa
Elevation 157
METAR KCCA 221535Z AUTO 00000KT 8SM CLR 27/21 A3006 RMK AO2
Observed Flight Rules
May-22 @ 15:35 UTC
(14 minutes ago)
VFR
Clouds
  • Clear skies
Temperature Dewpoint
27°C / 81°F 21°C / 70°F
Humidity Altimeter Pressure
70% 30.06" Hg 1018 hPa